Time;durP1;ratioP1;P1;durP2;ratioP2;P2;SDS_P1;SDS_P2;PMS_P1;PMS_P2;Temp;Humidity;BMP_temperature;BMP_pressure;BME280_temperature;BME280_humidity;BME280_pressure;Samples;Min_cycle;Max_cycle;Signal;HPM_P1;HPM_P2
2022/04/24 00:01:37;;;;;;;19.50;17.60;;;;;;;8.18;100.00;98035.00;5094485;28;20271;-75
2022/04/24 00:04:05;;;;;;;19.33;17.43;;;;;;;8.15;100.00;98038.16;5094612;28;20207;-75
2022/04/24 00:06:32;;;;;;;20.87;17.73;;;;;;;8.15;100.00;98032.00;5093163;28;20199;-75
2022/04/24 00:09:00;;;;;;;18.53;16.67;;;;;;;8.12;100.00;98027.94;5093493;28;20275;-76
2022/04/24 00:11:29;;;;;;;19.17;17.07;;;;;;;8.08;100.00;98020.69;5108812;28;20661;-79
2022/04/24 00:13:56;;;;;;;18.93;17.03;;;;;;;8.04;100.00;98023.03;5097170;28;20619;-76
2022/04/24 00:16:23;;;;;;;18.60;16.73;;;;;;;8.00;100.00;98024.56;5093147;28;20532;-75
2022/04/24 00:18:50;;;;;;;18.37;16.57;;;;;;;7.92;100.00;98019.63;5093005;28;20646;-76
2022/04/24 00:21:17;;;;;;;18.17;16.43;;;;;;;7.87;100.00;98019.56;5093457;28;20593;-75
2022/04/24 00:23:43;;;;;;;18.17;16.37;;;;;;;7.82;100.00;98020.28;5092912;28;20287;-76
2022/04/24 00:26:10;;;;;;;17.70;15.80;;;;;;;7.78;100.00;98019.16;5093880;28;20678;-75
2022/04/24 00:28:37;;;;;;;17.77;16.07;;;;;;;7.73;100.00;98019.06;5094076;28;20226;-75
2022/04/24 00:31:04;;;;;;;17.90;16.20;;;;;;;7.71;100.00;98021.13;5092444;28;20184;-76
2022/04/24 00:33:30;;;;;;;18.90;17.00;;;;;;;7.75;100.00;98021.47;5092803;28;20396;-75
2022/04/24 00:35:57;;;;;;;18.60;16.60;;;;;;;7.74;100.00;98011.88;5094219;28;20204;-76
2022/04/24 00:38:24;;;;;;;18.63;16.77;;;;;;;7.66;100.00;97998.91;5093671;28;20267;-75
2022/04/24 00:40:52;;;;;;;18.20;16.47;;;;;;;7.61;100.00;97999.63;5093888;28;20783;-74
2022/04/24 00:43:19;;;;;;;18.33;16.43;;;;;;;7.61;100.00;97996.97;5093770;28;20279;-75
2022/04/24 00:46:14;;;;;;;17.87;16.10;;;;;;;7.52;100.00;97995.75;5054378;28;20204;-75
2022/04/24 00:48:41;;;;;;;17.67;15.83;;;;;;;7.47;100.00;97999.13;5075852;28;20196;-74
2022/04/24 00:51:10;;;;;;;18.07;16.37;;;;;;;7.44;100.00;97993.47;5092226;28;20188;-74
2022/04/24 00:53:38;;;;;;;17.43;15.73;;;;;;;7.38;100.00;97987.22;5092575;28;20188;-76
2022/04/24 00:56:05;;;;;;;18.07;16.20;;;;;;;7.35;100.00;97994.91;5092331;28;20224;-77
2022/04/24 00:58:33;;;;;;;18.33;16.53;;;;;;;7.34;100.00;97978.09;5091986;28;20222;-76
2022/04/24 01:01:00;;;;;;;17.67;15.97;;;;;;;7.26;100.00;97964.34;5093460;28;20491;-75
2022/04/24 01:03:28;;;;;;;16.73;15.13;;;;;;;7.25;100.00;97962.75;5093022;28;20203;-76
2022/04/24 01:05:55;;;;;;;17.13;15.40;;;;;;;7.16;100.00;97964.97;5075468;28;20215;-73
2022/04/24 01:08:21;;;;;;;17.50;15.33;;;;;;;7.13;100.00;97960.13;5092153;28;20591;-75
2022/04/24 01:10:48;;;;;;;17.10;15.33;;;;;;;7.10;100.00;97963.25;5093275;28;20208;-73
2022/04/24 01:13:15;;;;;;;17.23;15.43;;;;;;;7.07;100.00;97956.56;5093200;28;20407;-73
2022/04/24 01:15:42;;;;;;;17.30;15.50;;;;;;;7.07;100.00;97951.25;5091785;28;20591;-73
2022/04/24 01:18:09;;;;;;;16.87;15.17;;;;;;;7.08;100.00;97954.72;5092070;28;20563;-75
2022/04/24 01:20:36;;;;;;;15.70;14.10;;;;;;;7.04;100.00;97948.25;5075439;28;20196;-73
2022/04/24 01:23:03;;;;;;;14.63;13.23;;;;;;;6.95;100.00;97947.78;5093125;28;20598;-74
2022/04/24 01:25:29;;;;;;;13.83;12.47;;;;;;;6.95;100.00;97947.00;5092607;28;20275;-73
2022/04/24 01:27:56;;;;;;;13.30;12.10;;;;;;;6.86;100.00;97945.78;5091784;28;20205;-73
2022/04/24 01:30:23;;;;;;;14.13;12.63;;;;;;;6.81;100.00;97956.31;5092809;28;20204;-73
2022/04/24 01:32:50;;;;;;;14.37;12.97;;;;;;;6.73;100.00;97954.00;5091451;28;20253;-74
2022/04/24 01:35:18;;;;;;;15.20;13.70;;;;;;;6.71;100.00;97953.44;5091464;28;20220;-73
2022/04/24 01:37:45;;;;;;;15.03;13.57;;;;;;;6.70;100.00;97951.81;5092906;28;20188;-73
2022/04/24 01:40:11;;;;;;;15.17;13.77;;;;;;;6.69;100.00;97952.84;5091286;28;20451;-73
2022/04/24 01:42:38;;;;;;;15.00;13.53;;;;;;;6.63;100.00;97938.63;5092737;28;20627;-73
2022/04/24 01:45:05;;;;;;;14.30;12.90;;;;;;;6.60;100.00;97950.56;5092940;28;20267;-73
2022/04/24 01:47:32;;;;;;;14.03;12.57;;;;;;;6.48;100.00;97935.69;5074202;28;20609;-74
2022/04/24 01:49:59;;;;;;;14.57;13.17;;;;;;;6.49;100.00;97947.91;5092671;28;20234;-74
2022/04/24 01:52:26;;;;;;;15.33;13.83;;;;;;;6.54;100.00;97953.34;5092187;28;20560;-73
2022/04/24 01:54:52;;;;;;;15.83;14.33;;;;;;;6.53;100.00;97935.78;5092553;28;20258;-73
2022/04/24 01:57:19;;;;;;;16.23;14.60;;;;;;;6.54;100.00;97930.22;5091551;28;20176;-73
2022/04/24 01:59:46;;;;;;;16.17;14.47;;;;;;;6.51;100.00;97916.56;5090898;28;20188;-74
2022/04/24 02:02:13;;;;;;;17.20;15.50;;;;;;;6.52;100.00;97912.88;5074196;28;20248;-73
2022/04/24 02:04:40;;;;;;;16.40;14.80;;;;;;;6.44;100.00;97903.38;5090947;28;20232;-74
2022/04/24 02:07:07;;;;;;;16.03;14.33;;;;;;;6.39;100.00;97905.94;5091141;28;20658;-73
2022/04/24 02:09:35;;;;;;;16.33;14.73;;;;;;;6.36;100.00;97901.09;5092255;28;20184;-75
2022/04/24 02:12:02;;;;;;;16.50;14.77;;;;;;;6.33;100.00;97896.25;5091221;28;20184;-74
2022/04/24 02:14:29;;;;;;;16.70;15.03;;;;;;;6.27;100.00;97902.50;5074151;28;20276;-75
2022/04/24 02:16:56;;;;;;;15.57;14.03;;;;;;;6.26;100.00;97895.56;5091098;28;20263;-74
2022/04/24 02:19:22;;;;;;;15.73;14.13;;;;;;;6.23;100.00;97895.22;5092021;28;20234;-74
2022/04/24 02:21:49;;;;;;;15.67;14.07;;;;;;;6.24;100.00;97896.84;5091198;28;20263;-75
2022/04/24 02:24:16;;;;;;;15.50;13.90;;;;;;;6.29;100.00;97892.44;5091686;28;20199;-73
2022/04/24 02:26:43;;;;;;;16.10;14.60;;;;;;;6.25;100.00;97896.63;5074030;28;20260;-74
2022/04/24 02:29:10;;;;;;;16.43;14.77;;;;;;;6.27;100.00;97896.38;5092247;28;20200;-73
2022/04/24 02:31:36;;;;;;;16.80;15.10;;;;;;;6.28;100.00;97892.69;5092062;28;20570;-73
2022/04/24 02:34:03;;;;;;;17.03;15.33;;;;;;;6.32;100.00;97889.31;5091906;28;20579;-74
2022/04/24 02:36:30;;;;;;;17.40;15.60;;;;;;;6.38;100.00;97890.22;5090485;28;20237;-74
2022/04/24 02:38:56;;;;;;;16.50;14.83;;;;;;;6.41;100.00;97890.56;5091519;28;20212;-73
2022/04/24 02:41:27;;;;;;;17.73;15.93;;;;;;;6.48;100.00;97887.78;5073576;28;20230;-73
2022/04/24 02:43:53;;;;;;;20.10;18.00;;;;;;;6.53;100.00;97878.03;5091606;28;20253;-73
2022/04/24 02:46:20;;;;;;;20.90;18.10;;;;;;;6.60;100.00;97877.91;5089881;28;20223;-73
2022/04/24 02:48:47;;;;;;;20.47;18.40;;;;;;;6.67;100.00;97878.59;5091763;28;20267;-73
2022/04/24 02:51:14;;;;;;;22.10;19.80;;;;;;;6.74;100.00;97865.94;5091650;28;20259;-75
2022/04/24 02:53:41;;;;;;;21.93;19.73;;;;;;;6.82;100.00;97867.41;5091928;28;20176;-72
2022/04/24 02:56:07;;;;;;;23.03;20.67;;;;;;;6.89;100.00;97882.19;5091610;28;20307;-74
2022/04/24 02:58:34;;;;;;;23.03;20.70;;;;;;;6.95;100.00;97880.44;5090896;28;20191;-74
2022/04/24 03:01:01;;;;;;;23.13;20.73;;;;;;;6.98;100.00;97886.09;5090777;28;20671;-73
2022/04/24 03:03:28;;;;;;;23.33;20.93;;;;;;;7.03;100.00;97878.19;5089701;28;20222;-73
2022/04/24 03:05:54;;;;;;;21.43;19.23;;;;;;;7.06;100.00;97875.06;5090702;28;20556;-73
2022/04/24 03:08:22;;;;;;;21.37;19.27;;;;;;;7.11;100.00;97860.22;5090754;28;20267;-73
2022/04/24 03:10:48;;;;;;;21.57;19.37;;;;;;;7.15;100.00;97859.47;5090029;28;20216;-73
2022/04/24 03:13:15;;;;;;;20.10;18.13;;;;;;;7.20;100.00;97861.44;5091457;28;20623;-73
2022/04/24 03:15:43;;;;;;;20.37;18.47;;;;;;;7.18;100.00;97851.03;5090008;28;20220;-74
2022/04/24 03:18:09;;;;;;;20.57;18.60;;;;;;;7.14;100.00;97844.53;5090130;28;20651;-75
2022/04/24 03:20:36;;;;;;;19.50;17.70;;;;;;;7.13;100.00;97834.16;5090442;28;20270;-74
2022/04/24 03:23:03;;;;;;;19.80;17.93;;;;;;;7.09;100.00;97828.50;5090074;28;20239;-73
2022/04/24 03:25:30;;;;;;;18.87;16.97;;;;;;;7.07;100.00;97833.25;5089681;28;20257;-74
2022/04/24 03:27:57;;;;;;;19.03;17.23;;;;;;;7.07;100.00;97828.75;5091112;28;20215;-75
2022/04/24 03:30:24;;;;;;;19.57;17.60;;;;;;;7.03;100.00;97832.13;5089989;28;20218;-74
2022/04/24 03:32:51;;;;;;;19.53;17.70;;;;;;;6.99;100.00;97831.00;5091284;28;20585;-73
2022/04/24 03:35:17;;;;;;;19.13;17.33;;;;;;;6.96;100.00;97823.47;5091235;28;20255;-73
2022/04/24 03:37:44;;;;;;;18.90;17.13;;;;;;;6.94;100.00;97821.06;5089981;28;20536;-73
2022/04/24 03:40:12;;;;;;;20.43;18.53;;;;;;;6.95;100.00;97813.88;5072951;28;20181;-73
2022/04/24 03:42:39;;;;;;;20.50;18.60;;;;;;;6.95;100.00;97803.25;5090040;28;20208;-75
2022/04/24 03:45:06;;;;;;;19.13;17.33;;;;;;;6.90;100.00;97798.63;5089789;28;20297;-74
2022/04/24 03:47:33;;;;;;;18.97;17.17;;;;;;;6.90;100.00;97790.66;5090789;28;20206;-75
2022/04/24 03:50:00;;;;;;;19.80;17.90;;;;;;;7.03;100.00;97798.31;5089751;28;20193;-73
2022/04/24 03:52:27;;;;;;;19.57;17.67;;;;;;;7.09;100.00;97799.22;5106420;28;20189;-75
2022/04/24 03:54:54;;;;;;;18.30;16.47;;;;;;;7.14;100.00;97796.59;5090836;28;20191;-74
2022/04/24 03:57:21;;;;;;;16.70;15.00;;;;;;;7.32;100.00;97798.25;5090736;28;20197;-74
2022/04/24 03:59:47;;;;;;;17.37;14.13;;;;;;;7.35;100.00;97798.56;5089798;28;20194;-75
2022/04/24 04:02:14;;;;;;;15.13;13.63;;;;;;;7.46;100.00;97805.66;5089714;28;20450;-74
2022/04/24 04:04:41;;;;;;;13.37;12.00;;;;;;;7.69;100.00;97796.69;5091174;28;20193;-74
2022/04/24 04:07:09;;;;;;;11.83;10.63;;;;;;;7.92;100.00;97776.97;5090833;28;20577;-77
2022/04/24 04:09:36;;;;;;;11.63;9.60;;;;;;;8.14;100.00;97776.97;5091015;28;20237;-74
2022/04/24 04:12:03;;;;;;;10.73;9.57;;;;;;;8.39;100.00;97775.47;5089687;28;20286;-76
2022/04/24 04:14:29;;;;;;;10.43;9.10;;;;;;;8.80;100.00;97762.50;5091108;28;20356;-76
2022/04/24 04:16:56;;;;;;;9.30;8.30;;;;;;;9.11;100.00;97756.38;5089865;28;20280;-76
2022/04/24 04:19:29;;;;;;;9.73;8.10;;;;;;;9.31;100.00;97752.22;5089960;28;20483;-75
2022/04/24 04:21:56;;;;;;;9.43;8.57;;;;;;;9.48;100.00;97755.56;5093475;28;20219;-74
2022/04/24 04:24:23;;;;;;;8.30;7.50;;;;;;;9.63;100.00;97753.78;5093300;28;20695;-77
2022/04/24 04:26:50;;;;;;;7.83;7.00;;;;;;;9.94;100.00;97757.41;5094510;28;20199;-75
2022/04/24 04:29:16;;;;;;;7.27;6.53;;;;;;;10.06;100.00;97751.88;5093109;28;20259;-73
2022/04/24 04:31:44;;;;;;;7.23;6.50;;;;;;;10.39;100.00;97758.69;5093289;28;20222;-74
2022/04/24 04:34:10;;;;;;;8.87;6.57;;;;;;;10.59;100.00;97764.13;5093332;28;20195;-74
2022/04/24 04:36:37;;;;;;;6.80;6.13;;;;;;;10.78;100.00;97756.38;5094520;28;20188;-73
2022/04/24 04:39:04;;;;;;;6.63;5.67;;;;;;;11.05;100.00;97754.25;5093355;28;20611;-75
2022/04/24 04:41:31;;;;;;;6.17;5.50;;;;;;;11.39;100.00;97744.56;5093847;28;20208;-76
2022/04/24 04:43:58;;;;;;;6.47;5.87;;;;;;;11.65;100.00;97755.28;5094650;28;20866;-74
2022/04/24 04:46:24;;;;;;;5.73;5.20;;;;;;;11.86;100.00;97751.47;5092880;28;20591;-75
2022/04/24 04:48:51;;;;;;;6.03;5.37;;;;;;;12.14;100.00;97737.44;5093353;28;20211;-76
2022/04/24 04:51:18;;;;;;;6.10;4.90;;;;;;;12.40;100.00;97726.56;5093928;28;20211;-75
2022/04/24 04:53:45;;;;;;;6.10;5.27;;;;;;;12.60;100.00;97740.69;5093687;28;20264;-74
2022/04/24 04:56:12;;;;;;;5.23;4.73;;;;;;;12.74;100.00;97741.66;5092966;28;20256;-75
2022/04/24 04:58:38;;;;;;;6.10;4.90;;;;;;;13.04;100.00;97732.59;5109939;28;20219;-73
2022/04/24 05:01:06;;;;;;;5.30;4.80;;;;;;;13.03;100.00;97736.34;5075923;28;20249;-78
2022/04/24 05:03:32;;;;;;;5.10;4.70;;;;;;;13.02;100.00;97728.56;5092831;28;20472;-75
2022/04/24 05:05:59;;;;;;;6.10;4.77;;;;;;;13.02;100.00;97712.44;5093911;28;20177;-75
2022/04/24 05:08:26;;;;;;;4.90;4.50;;;;;;;12.94;100.00;97713.03;5094232;28;20221;-74
2022/04/24 05:10:53;;;;;;;5.57;4.60;;;;;;;12.94;100.00;97713.03;5093875;28;20204;-77
2022/04/24 05:13:20;;;;;;;5.60;4.30;;;;;;;13.01;100.00;97706.28;5075679;28;20618;-74
2022/04/24 05:15:47;;;;;;;16.30;12.87;;;;;;;12.95;100.00;97717.34;5092639;28;20285;-74
2022/04/24 05:18:14;;;;;;;5.33;4.83;;;;;;;12.95;100.00;97717.34;5093768;28;20219;-73
2022/04/24 05:20:43;;;;;;;5.43;4.40;;;;;;;12.94;100.00;97715.72;5092772;28;20221;-76
2022/04/24 05:23:10;;;;;;;4.07;3.57;;;;;;;12.98;100.00;97701.44;5093156;28;20235;-74
2022/04/24 05:25:36;;;;;;;4.27;3.60;;;;;;;13.12;100.00;97699.75;5092339;28;20236;-75
2022/04/24 05:28:04;;;;;;;3.73;3.33;;;;;;;13.10;100.00;97701.09;5075774;28;20655;-74
2022/04/24 05:30:32;;;;;;;6.00;3.10;;;;;;;13.26;100.00;97710.63;5093600;28;20448;-76
2022/04/24 05:32:59;;;;;;;3.87;3.00;;;;;;;13.36;100.00;97697.09;5092474;28;20279;-75
2022/04/24 05:35:25;;;;;;;4.60;2.73;;;;;;;13.46;100.00;97715.03;5075601;28;20605;-76
2022/04/24 05:37:52;;;;;;;2.87;2.43;;;;;;;13.59;100.00;97711.66;5092254;28;20585;-74
2022/04/24 05:40:19;;;;;;;3.77;2.77;;;;;;;13.87;100.00;97705.44;5075386;28;20654;-75
2022/04/24 05:42:48;;;;;;;2.80;2.47;;;;;;;13.97;100.00;97710.72;5093379;28;20264;-76
2022/04/24 05:45:18;;;;;;;2.90;2.60;;;;;;;14.17;100.00;97712.34;5091965;28;20208;-74
2022/04/24 05:47:46;;;;;;;3.20;2.40;;;;;;;14.35;100.00;97705.38;5093486;28;20212;-78
2022/04/24 05:50:13;;;;;;;4.17;2.37;;;;;;;14.60;100.00;97713.16;5092844;28;20191;-74
2022/04/24 05:52:41;;;;;;;3.93;2.60;;;;;;;14.88;100.00;97704.06;5092404;28;20183;-76
2022/04/24 05:55:08;;;;;;;2.67;2.40;;;;;;;15.17;100.00;97701.19;5093125;28;20212;-76
2022/04/24 05:57:36;;;;;;;2.90;2.33;;;;;;;15.31;100.00;97709.31;5091754;28;20374;-73
2022/04/24 06:00:04;;;;;;;5.37;2.20;;;;;;;15.50;100.00;97693.06;5093283;28;20272;-75
2022/04/24 06:02:37;;;;;;;4.43;2.00;;;;;;;15.65;100.00;97688.22;5092533;28;20577;-74
2022/04/24 06:05:05;;;;;;;4.13;2.17;;;;;;;15.64;100.00;97672.31;5092624;28;20204;-75
2022/04/24 06:07:32;;;;;;;4.03;1.80;;;;;;;15.57;100.00;97672.72;5091496;28;20222;-75
2022/04/24 06:09:59;;;;;;;3.20;2.30;;;;;;;15.62;100.00;97652.94;5092147;28;20514;-74
2022/04/24 06:12:26;;;;;;;4.43;2.13;;;;;;;15.50;100.00;97647.97;5092717;28;20181;-77
2022/04/24 06:14:52;;;;;;;2.13;1.93;;;;;;;15.33;100.00;97647.78;5093117;28;20494;-77
2022/04/24 06:17:19;;;;;;;4.80;1.73;;;;;;;15.24;100.00;97649.56;5091559;28;20285;-76
2022/04/24 06:19:46;;;;;;;4.00;1.90;;;;;;;15.15;100.00;97638.66;5075165;28;20189;-78
2022/04/24 06:22:13;;;;;;;7.10;1.73;;;;;;;14.96;100.00;97643.31;5093030;28;20246;-74
2022/04/24 06:24:39;;;;;;;5.13;1.80;;;;;;;14.84;100.00;97646.44;5091936;28;20238;-74
2022/04/24 06:27:07;;;;;;;2.93;1.80;;;;;;;14.69;100.00;97638.63;5092523;28;20184;-76
2022/04/24 06:29:34;;;;;;;3.00;1.40;;;;;;;14.76;100.00;97630.94;5091616;28;20275;-75
2022/04/24 06:32:01;;;;;;;5.13;1.50;;;;;;;14.81;100.00;97640.84;5092708;28;20210;-75
2022/04/24 06:34:27;;;;;;;4.77;1.70;;;;;;;14.83;100.00;97631.38;5092567;28;20225;-75
2022/04/24 06:36:54;;;;;;;3.00;1.57;;;;;;;14.84;100.00;97624.06;5092558;28;20210;-77
2022/04/24 06:39:21;;;;;;;3.37;1.53;;;;;;;14.88;100.00;97625.09;5074355;28;20263;-78
2022/04/24 06:41:48;;;;;;;4.07;1.60;;;;;;;14.81;100.00;97620.09;5092506;28;20257;-78
2022/04/24 06:44:20;;;;;;;3.60;2.00;;;;;;;14.79;100.00;97622.25;5090640;28;20298;-76
2022/04/24 06:46:46;;;;;;;4.37;1.87;;;;;;;14.82;100.00;97626.28;5091715;28;20186;-75
2022/04/24 06:49:14;;;;;;;3.33;1.93;;;;;;;14.90;100.00;97612.91;5092169;28;20643;-76
2022/04/24 06:51:40;;;;;;;3.47;1.77;;;;;;;14.83;100.00;97611.72;5074598;28;20229;-75
2022/04/24 06:54:07;;;;;;;3.23;2.00;;;;;;;14.86;100.00;97582.25;5091158;28;20405;-75
2022/04/24 06:56:34;;;;;;;3.63;1.70;;;;;;;14.84;100.00;97580.94;5074064;28;20313;-76
2022/04/24 06:59:03;;;;;;;4.03;1.83;;;;;;;14.81;100.00;97576.94;5092579;28;20185;-77
2022/04/24 07:01:30;;;;;;;4.07;2.00;;;;;;;14.72;100.00;97557.16;5092034;28;20229;-75
2022/04/24 07:03:57;;;;;;;4.10;1.80;;;;;;;14.64;100.00;97575.91;5091068;28;20297;-77
2022/04/24 07:06:25;;;;;;;4.43;2.07;;;;;;;14.68;100.00;97553.47;5090547;28;20228;-78
2022/04/24 07:08:52;;;;;;;3.63;2.00;;;;;;;14.46;100.00;97564.09;5092108;28;20212;-76
2022/04/24 07:11:19;;;;;;;3.87;1.80;;;;;;;14.46;100.00;97567.56;5092130;28;20239;-75
2022/04/24 07:13:46;;;;;;;4.97;1.83;;;;;;;14.42;100.00;97579.22;5092838;28;20201;-77
2022/04/24 07:16:13;;;;;;;2.90;1.70;;;;;;;14.37;100.00;97585.47;5090876;28;20220;-75
2022/04/24 07:18:40;;;;;;;2.37;1.90;;;;;;;14.37;100.00;97584.72;5090992;28;20186;-77
2022/04/24 07:21:06;;;;;;;5.20;2.00;;;;;;;14.49;100.00;97574.25;5092211;28;20269;-75
2022/04/24 07:23:35;;;;;;;5.63;2.27;;;;;;;14.45;100.00;97573.25;5091188;28;20197;-77
2022/04/24 07:26:02;;;;;;;3.80;1.80;;;;;;;14.60;100.00;97566.81;5092099;28;20244;-77
2022/04/24 07:28:30;;;;;;;5.60;1.80;;;;;;;14.69;100.00;97573.13;5090779;28;20190;-75
2022/04/24 07:30:57;;;;;;;3.17;1.30;;;;;;;14.74;100.00;97595.41;5091977;28;20183;-77
2022/04/24 07:33:24;;;;;;;6.07;2.10;;;;;;;14.98;100.00;97590.66;5091938;28;20215;-75
2022/04/24 07:35:50;;;;;;;3.60;1.60;;;;;;;15.21;100.00;97596.22;5092409;28;20233;-76
2022/04/24 07:38:17;;;;;;;3.70;1.97;;;;;;;15.44;100.00;97581.72;5091610;28;20279;-75
2022/04/24 07:40:44;;;;;;;5.27;1.80;;;;;;;15.65;100.00;97566.75;5091605;28;20186;-77
2022/04/24 07:43:12;;;;;;;3.77;1.80;;;;;;;15.81;100.00;97586.13;5091959;28;20212;-77
2022/04/24 07:45:41;;;;;;;3.07;1.80;;;;;;;15.94;100.00;97593.41;5095540;28;20508;-77
2022/04/24 07:48:09;;;;;;;3.50;1.87;;;;;;;16.05;100.00;97618.28;5098005;28;20226;-74
2022/04/24 07:50:38;;;;;;;3.43;1.90;;;;;;;16.16;100.00;97638.56;5099273;28;20608;-76
2022/04/24 07:53:05;;;;;;;4.37;2.00;;;;;;;16.50;100.00;97644.28;5072259;28;20208;-73
2022/04/24 07:55:33;;;;;;;3.43;1.80;;;;;;;16.64;100.00;97649.66;5092464;28;20656;-78
2022/04/24 07:58:00;;;;;;;3.70;2.20;;;;;;;16.83;100.00;97666.53;5094782;28;20279;-74
2022/04/24 08:00:29;;;;;;;3.17;1.90;;;;;;;16.87;100.00;97645.06;5101339;28;20199;-75
2022/04/24 08:03:01;;;;;;;2.80;2.07;;;;;;;17.12;100.00;97645.22;5095742;28;20501;-75
2022/04/24 08:05:34;;;;;;;6.90;2.93;;;;;;;17.47;100.00;97656.22;5079262;28;20204;-76
2022/04/24 08:08:10;;;;;;;4.30;2.27;;;;;;;17.72;100.00;97674.53;5106559;28;20200;-76
2022/04/24 08:10:44;;;;;;;3.70;2.43;;;;;;;17.85;100.00;97670.13;5084663;28;20261;-74
2022/04/24 08:13:11;;;;;;;3.83;2.10;;;;;;;18.16;100.00;97680.88;5094430;28;20222;-77
2022/04/24 08:15:41;;;;;;;4.13;2.03;;;;;;;18.37;100.00;97671.84;5091155;28;20187;-75
2022/04/24 08:18:10;;;;;;;5.77;1.93;;;;;;;18.52;100.00;97676.00;5095871;28;20188;-75
2022/04/24 08:20:38;;;;;;;3.53;1.60;;;;;;;18.77;100.00;97679.84;5105879;28;20207;-76
2022/04/24 08:23:06;;;;;;;4.47;2.10;;;;;;;18.97;99.00;97686.56;5099395;28;20231;-75
2022/04/24 08:25:35;;;;;;;6.63;3.77;;;;;;;19.11;95.53;97685.25;5095455;28;20603;-76
2022/04/24 08:28:08;;;;;;;16.57;11.47;;;;;;;19.30;94.18;97672.13;5094620;28;20193;-79
2022/04/24 08:30:43;;;;;;;7.20;4.83;;;;;;;19.46;93.82;97668.91;5078598;28;20264;-76
2022/04/24 08:33:13;;;;;;;47.73;29.97;;;;;;;19.77;91.56;97675.69;5093670;28;20266;-76
2022/04/24 08:35:40;;;;;;;9.43;5.63;;;;;;;20.02;87.81;97667.72;5090828;28;20200;-77
2022/04/24 08:38:07;;;;;;;12.63;7.47;;;;;;;20.18;87.77;97668.75;5090694;28;20275;-73
2022/04/24 08:40:34;;;;;;;8.57;4.33;;;;;;;20.45;84.44;97662.84;5089264;28;20188;-76
2022/04/24 08:43:01;;;;;;;6.00;3.17;;;;;;;20.33;79.45;97665.50;5080671;28;20284;-75
2022/04/24 08:45:29;;;;;;;5.47;3.20;;;;;;;20.54;76.75;97666.28;5110832;28;20295;-76
2022/04/24 08:47:57;;;;;;;5.73;2.27;;;;;;;20.53;74.68;97672.09;5078210;28;20189;-75
2022/04/24 08:50:27;;;;;;;10.73;6.07;;;;;;;20.11;75.36;97663.81;5098698;28;20518;-78
2022/04/24 08:52:55;;;;;;;5.77;2.40;;;;;;;20.19;75.67;97662.19;5096056;28;20253;-76
2022/04/24 08:55:24;;;;;;;9.53;3.93;;;;;;;20.25;75.00;97663.56;5097383;28;20248;-78
2022/04/24 08:57:51;;;;;;;7.33;3.90;;;;;;;20.18;73.40;97655.97;5095321;28;20267;-78
2022/04/24 09:00:18;;;;;;;7.60;2.20;;;;;;;19.78;75.02;97660.94;5095299;28;20192;-75
2022/04/24 09:02:50;;;;;;;6.73;2.50;;;;;;;19.75;72.57;97650.75;5113979;28;20183;-74
2022/04/24 09:05:17;;;;;;;9.80;4.50;;;;;;;19.87;74.29;97658.22;5107944;28;20298;-76
2022/04/24 09:07:45;;;;;;;7.10;3.50;;;;;;;20.18;72.57;97653.25;5081960;28;20210;-74
2022/04/24 09:10:33;;;;;;;4.97;1.93;;;;;;;20.51;69.50;97636.25;5087284;28;20263;-75
2022/04/24 09:13:03;;;;;;;5.57;2.07;;;;;;;20.58;66.14;97637.28;5092234;28;20242;-75
2022/04/24 09:15:34;;;;;;;4.40;2.27;;;;;;;20.82;65.58;97633.88;5092870;28;20479;-75
2022/04/24 09:18:02;;;;;;;6.90;2.27;;;;;;;20.73;64.35;97641.34;5091707;28;20182;-77
2022/04/24 09:20:41;;;;;;;7.63;3.60;;;;;;;20.88;62.82;97650.81;5103568;28;20591;-77
2022/04/24 09:23:07;;;;;;;5.40;1.90;;;;;;;20.93;62.59;97639.72;5078170;28;20206;-75
2022/04/24 09:25:38;;;;;;;6.37;2.20;;;;;;;21.23;61.49;97645.88;5107435;28;20230;-80
2022/04/24 09:28:05;;;;;;;8.60;2.37;;;;;;;21.44;60.10;97641.94;5100774;28;20188;-83
2022/04/24 09:30:35;;;;;;;6.97;2.27;;;;;;;21.81;59.15;97650.16;5098346;28;20224;-82
2022/04/24 09:33:06;;;;;;;7.30;2.30;;;;;;;22.28;55.42;97650.50;5086157;28;20192;-77
2022/04/24 09:35:40;;;;;;;8.07;1.97;;;;;;;22.39;55.19;97655.16;5094855;28;20186;-74
2022/04/24 09:38:13;;;;;;;4.57;2.20;;;;;;;22.55;52.23;97641.56;5089674;28;20189;-77
2022/04/24 09:40:44;;;;;;;7.47;2.40;;;;;;;22.59;52.46;97638.94;5098812;28;20187;-75
2022/04/24 09:43:13;;;;;;;5.53;1.70;;;;;;;22.78;51.09;97648.13;5095191;28;20279;-82
2022/04/24 09:45:41;;;;;;;4.13;1.50;;;;;;;22.80;50.57;97639.59;5095348;28;20507;-78
2022/04/24 09:48:20;;;;;;;5.33;2.17;;;;;;;22.69;50.48;97638.44;5109676;27;20184;-78
2022/04/24 09:50:51;;;;;;;5.30;1.87;;;;;;;22.72;49.35;97641.31;5088140;28;20181;-75
2022/04/24 09:53:20;;;;;;;5.87;2.20;;;;;;;22.56;48.57;97629.50;5094274;28;20273;-77
2022/04/24 09:55:50;;;;;;;5.60;2.03;;;;;;;22.87;49.04;97641.72;5077316;28;20334;-76
2022/04/24 09:58:18;;;;;;;6.93;1.63;;;;;;;23.02;48.20;97654.63;5088604;28;20198;-75
2022/04/24 10:00:44;;;;;;;3.93;1.50;;;;;;;22.88;47.53;97657.75;5091285;28;20213;-77
2022/04/24 10:03:16;;;;;;;5.27;1.40;;;;;;;22.67;47.48;97668.84;5094132;28;20229;-77
2022/04/24 10:05:46;;;;;;;4.87;1.67;;;;;;;22.78;47.03;97647.31;5090202;28;20591;-80
2022/04/24 10:08:18;;;;;;;3.07;1.47;;;;;;;22.43;47.87;97673.56;5091076;28;20459;-75
2022/04/24 10:10:50;;;;;;;3.57;1.00;;;;;;;22.16;49.69;97675.84;5093762;28;20291;-75
2022/04/24 10:13:18;;;;;;;3.33;1.57;;;;;;;22.36;48.52;97677.63;5085222;28;20187;-78
2022/04/24 10:15:48;;;;;;;3.77;1.60;;;;;;;22.48;45.74;97671.38;5089046;28;20270;-80
2022/04/24 10:18:38;;;;;;;1.67;1.10;;;;;;;22.40;46.91;97645.00;5104713;28;20195;-74
2022/04/24 10:21:31;;;;;;;3.37;1.30;;;;;;;22.33;45.34;97644.81;5083586;28;20233;-77
2022/04/24 10:24:18;;;;;;;2.03;1.40;;;;;;;22.21;44.94;97640.16;5105173;28;20185;-77
2022/04/24 10:26:52;;;;;;;3.30;1.43;;;;;;;22.79;42.46;97633.34;5090593;28;20210;-75
2022/04/24 10:29:19;;;;;;;3.47;1.70;;;;;;;23.41;41.39;97639.28;5073799;28;20221;-77
2022/04/24 10:31:48;;;;;;;2.78;1.85;;;;;;;24.25;39.76;97623.41;5099821;28;20575;-79
2022/04/24 10:34:18;;;;;;;3.50;2.10;;;;;;;24.92;38.00;97627.56;5095160;28;20384;-79
2022/04/24 10:37:01;;;;;;;3.45;1.30;;;;;;;25.08;36.55;97630.25;5090895;28;20175;-74
2022/04/24 10:39:30;;;;;;;1.50;1.13;;;;;;;25.12;36.92;97631.88;5072069;28;20533;-74
2022/04/24 10:42:12;;;;;;;2.47;1.30;;;;;;;24.31;35.88;97624.72;5081590;28;20216;-77
2022/04/24 10:44:54;;;;;;;5.65;1.77;;;;;;;23.73;38.11;97616.31;5089051;28;20246;-76
2022/04/24 10:47:21;;;;;;;2.85;1.42;;;;;;;23.99;37.91;97626.69;5094207;28;20295;-74
2022/04/24 10:49:47;;;;;;;3.58;1.40;;;;;;;23.97;37.59;97601.66;5098573;28;20362;-74
2022/04/24 10:52:14;;;;;;;4.18;1.17;;;;;;;23.79;35.21;97597.69;5100008;28;20241;-77
2022/04/24 10:54:43;;;;;;;2.55;1.00;;;;;;;23.64;35.59;97602.81;5096639;28;20260;-77
2022/04/24 10:57:18;;;;;;;1.27;0.90;;;;;;;23.35;34.99;97596.97;5088568;28;20550;-81
2022/04/24 10:59:51;;;;;;;1.92;1.00;;;;;;;23.10;35.74;97604.50;5090108;28;20195;-80
2022/04/24 11:02:22;;;;;;;2.33;1.10;;;;;;;22.87;34.96;97596.09;5090887;28;20172;-74
2022/04/24 11:05:02;;;;;;;1.67;0.90;;;;;;;22.75;35.30;97596.16;5091418;28;20197;-79
2022/04/24 11:07:31;;;;;;;2.25;0.75;;;;;;;22.80;35.98;97601.38;5089826;28;20307;-74
2022/04/24 11:10:20;;;;;;;1.30;0.90;;;;;;;22.69;35.73;97601.03;5090634;28;20188;-78
2022/04/24 11:12:48;;;;;;;1.83;0.93;;;;;;;22.68;35.32;97601.38;5089027;28;20197;-75
2022/04/24 11:15:15;;;;;;;2.85;0.88;;;;;;;22.42;35.72;97601.00;5090570;28;20224;-73
2022/04/24 11:17:42;;;;;;;1.48;0.82;;;;;;;22.43;35.40;97599.88;5089756;28;20195;-77
2022/04/24 11:20:11;;;;;;;2.15;1.00;;;;;;;22.49;35.51;97591.09;5091184;28;20577;-74
2022/04/24 11:23:05;;;;;;;2.30;0.88;;;;;;;22.51;35.55;97590.75;5090489;28;20222;-74
2022/04/24 11:25:38;;;;;;;2.33;1.15;;;;;;;22.57;35.89;97592.91;5087520;28;20265;-82
2022/04/24 11:28:05;;;;;;;1.45;0.82;;;;;;;22.66;34.90;97588.09;5090268;28;20255;-76
2022/04/24 11:30:33;;;;;;;1.35;0.90;;;;;;;22.54;33.85;97588.13;5095153;28;20254;-81